sensor_id;sensor_type;location;lat;lon;timestamp;pressure;altitude;pressure_sealevel;temperature;humidity
22440;BME280;11387;51.612;7.210;2023-05-19T00:01:39;101730.19;;;8.69;69.45
22440;BME280;11387;51.612;7.210;2023-05-19T00:04:10;101732.13;;;8.74;69.26
22440;BME280;11387;51.612;7.210;2023-05-19T00:06:43;101717.25;;;8.60;69.86
22440;BME280;11387;51.612;7.210;2023-05-19T00:09:14;101722.16;;;8.58;70.06
22440;BME280;11387;51.612;7.210;2023-05-19T00:11:44;101721.13;;;8.64;69.68
22440;BME280;11387;51.612;7.210;2023-05-19T00:14:15;101723.50;;;8.55;69.62
22440;BME280;11387;51.612;7.210;2023-05-19T00:16:46;101724.59;;;8.54;69.80
22440;BME280;11387;51.612;7.210;2023-05-19T00:19:14;101721.56;;;8.51;70.33
22440;BME280;11387;51.612;7.210;2023-05-19T00:21:43;101721.25;;;8.47;70.36
22440;BME280;11387;51.612;7.210;2023-05-19T00:24:15;101719.16;;;8.54;69.93
22440;BME280;11387;51.612;7.210;2023-05-19T00:26:44;101725.31;;;8.44;70.06
22440;BME280;11387;51.612;7.210;2023-05-19T00:29:14;101729.13;;;8.43;70.47
22440;BME280;11387;51.612;7.210;2023-05-19T00:31:46;101729.88;;;8.39;70.85
22440;BME280;11387;51.612;7.210;2023-05-19T00:34:15;101734.56;;;8.43;70.57
22440;BME280;11387;51.612;7.210;2023-05-19T00:36:43;101727.22;;;8.44;70.34
22440;BME280;11387;51.612;7.210;2023-05-19T00:39:12;101733.19;;;8.41;70.24
22440;BME280;11387;51.612;7.210;2023-05-19T00:41:40;101731.53;;;8.40;70.45
22440;BME280;11387;51.612;7.210;2023-05-19T00:44:09;101727.47;;;8.42;70.10
22440;BME280;11387;51.612;7.210;2023-05-19T00:46:37;101729.06;;;8.38;70.42
22440;BME280;11387;51.612;7.210;2023-05-19T00:49:09;101731.72;;;8.33;71.18
22440;BME280;11387;51.612;7.210;2023-05-19T00:51:37;101726.16;;;8.23;71.22
22440;BME280;11387;51.612;7.210;2023-05-19T00:54:07;101724.94;;;8.36;71.11
22440;BME280;11387;51.612;7.210;2023-05-19T00:56:36;101725.09;;;8.29;71.29
22440;BME280;11387;51.612;7.210;2023-05-19T00:59:05;101725.78;;;8.15;70.96
22440;BME280;11387;51.612;7.210;2023-05-19T01:01:33;101731.16;;;8.09;71.36
22440;BME280;11387;51.612;7.210;2023-05-19T01:04:03;101726.84;;;8.14;71.56
22440;BME280;11387;51.612;7.210;2023-05-19T01:06:37;101717.28;;;8.11;71.17
22440;BME280;11387;51.612;7.210;2023-05-19T01:09:06;101715.38;;;8.11;71.20
22440;BME280;11387;51.612;7.210;2023-05-19T01:11:35;101719.88;;;8.01;72.39
22440;BME280;11387;51.612;7.210;2023-05-19T01:14:03;101721.84;;;8.05;71.88
22440;BME280;11387;51.612;7.210;2023-05-19T01:16:33;101725.06;;;8.02;71.71
22440;BME280;11387;51.612;7.210;2023-05-19T01:19:05;101715.88;;;8.08;72.03
22440;BME280;11387;51.612;7.210;2023-05-19T01:27:22;101717.66;;;7.98;72.42
22440;BME280;11387;51.612;7.210;2023-05-19T01:30:06;101716.59;;;7.99;72.28
22440;BME280;11387;51.612;7.210;2023-05-19T01:32:36;101720.47;;;7.81;72.96
22440;BME280;11387;51.612;7.210;2023-05-19T01:35:08;101722.38;;;7.81;73.03
22440;BME280;11387;51.612;7.210;2023-05-19T01:37:38;101711.78;;;7.84;73.16
22440;BME280;11387;51.612;7.210;2023-05-19T01:40:13;101711.28;;;7.87;72.91
22440;BME280;11387;51.612;7.210;2023-05-19T01:42:43;101719.13;;;7.84;72.51
22440;BME280;11387;51.612;7.210;2023-05-19T01:45:15;101715.84;;;7.82;73.45
22440;BME280;11387;51.612;7.210;2023-05-19T01:47:46;101719.47;;;7.87;72.74
22440;BME280;11387;51.612;7.210;2023-05-19T01:50:15;101719.91;;;7.79;73.62
22440;BME280;11387;51.612;7.210;2023-05-19T01:52:44;101722.03;;;7.77;72.86
22440;BME280;11387;51.612;7.210;2023-05-19T01:55:12;101725.03;;;7.75;73.11
22440;BME280;11387;51.612;7.210;2023-05-19T01:57:42;101720.91;;;7.73;73.02
22440;BME280;11387;51.612;7.210;2023-05-19T02:00:26;101729.31;;;7.71;73.37
22440;BME280;11387;51.612;7.210;2023-05-19T02:03:00;101730.06;;;7.67;73.78
22440;BME280;11387;51.612;7.210;2023-05-19T02:05:34;101725.69;;;7.66;73.81
22440;BME280;11387;51.612;7.210;2023-05-19T02:08:16;101725.84;;;7.54;74.58
22440;BME280;11387;51.612;7.210;2023-05-19T02:10:49;101725.59;;;7.56;73.92
22440;BME280;11387;51.612;7.210;2023-05-19T02:13:19;101729.88;;;7.52;74.26
22440;BME280;11387;51.612;7.210;2023-05-19T02:15:51;101729.38;;;7.55;74.30
22440;BME280;11387;51.612;7.210;2023-05-19T02:18:23;101729.22;;;7.44;74.50
22440;BME280;11387;51.612;7.210;2023-05-19T02:21:15;101720.25;;;7.44;74.83
22440;BME280;11387;51.612;7.210;2023-05-19T02:23:45;101720.25;;;7.44;74.81
22440;BME280;11387;51.612;7.210;2023-05-19T02:26:16;101731.38;;;7.42;74.91
22440;BME280;11387;51.612;7.210;2023-05-19T02:28:45;101721.81;;;7.40;75.53
22440;BME280;11387;51.612;7.210;2023-05-19T02:31:17;101728.41;;;7.44;74.80
22440;BME280;11387;51.612;7.210;2023-05-19T02:33:46;101727.91;;;7.47;75.37
22440;BME280;11387;51.612;7.210;2023-05-19T02:36:14;101719.16;;;7.45;75.07
22440;BME280;11387;51.612;7.210;2023-05-19T02:38:45;101722.97;;;7.44;75.03
22440;BME280;11387;51.612;7.210;2023-05-19T02:41:13;101721.81;;;7.40;75.12
22440;BME280;11387;51.612;7.210;2023-05-19T02:43:45;101729.06;;;7.34;75.72
22440;BME280;11387;51.612;7.210;2023-05-19T02:46:13;101716.03;;;7.36;75.89
22440;BME280;11387;51.612;7.210;2023-05-19T02:48:43;101717.31;;;7.29;75.48
22440;BME280;11387;51.612;7.210;2023-05-19T02:51:11;101718.47;;;7.33;75.74
22440;BME280;11387;51.612;7.210;2023-05-19T02:53:40;101702.63;;;7.30;75.72
22440;BME280;11387;51.612;7.210;2023-05-19T02:56:29;101708.66;;;7.32;75.26
22440;BME280;11387;51.612;7.210;2023-05-19T02:59:00;101706.19;;;7.30;76.12
22440;BME280;11387;51.612;7.210;2023-05-19T03:01:31;101707.41;;;7.23;75.66
22440;BME280;11387;51.612;7.210;2023-05-19T03:04:01;101701.47;;;7.26;75.61
22440;BME280;11387;51.612;7.210;2023-05-19T03:06:30;101704.19;;;7.26;76.05
22440;BME280;11387;51.612;7.210;2023-05-19T03:08:58;101705.84;;;7.27;76.32
22440;BME280;11387;51.612;7.210;2023-05-19T03:11:27;101712.88;;;7.23;75.91
22440;BME280;11387;51.612;7.210;2023-05-19T03:13:58;101706.59;;;7.22;76.21
22440;BME280;11387;51.612;7.210;2023-05-19T03:16:26;101700.91;;;7.24;76.25
22440;BME280;11387;51.612;7.210;2023-05-19T03:19:02;101707.41;;;7.23;76.45
22440;BME280;11387;51.612;7.210;2023-05-19T03:21:30;101704.88;;;7.16;76.43
22440;BME280;11387;51.612;7.210;2023-05-19T03:24:00;101714.09;;;7.15;76.66
22440;BME280;11387;51.612;7.210;2023-05-19T03:26:32;101714.59;;;7.12;76.49
22440;BME280;11387;51.612;7.210;2023-05-19T03:29:01;101719.38;;;7.05;77.21
22440;BME280;11387;51.612;7.210;2023-05-19T03:31:29;101720.88;;;7.13;76.95
22440;BME280;11387;51.612;7.210;2023-05-19T03:34:02;101723.59;;;7.13;77.12
22440;BME280;11387;51.612;7.210;2023-05-19T03:36:30;101715.81;;;7.04;77.17
22440;BME280;11387;51.612;7.210;2023-05-19T03:39:06;101712.94;;;7.11;77.21
22440;BME280;11387;51.612;7.210;2023-05-19T03:41:46;101712.63;;;7.07;76.77
22440;BME280;11387;51.612;7.210;2023-05-19T03:44:15;101718.56;;;7.04;77.26
22440;BME280;11387;51.612;7.210;2023-05-19T03:46:44;101721.03;;;7.06;77.26
22440;BME280;11387;51.612;7.210;2023-05-19T03:49:14;101722.91;;;7.05;77.55
22440;BME280;11387;51.612;7.210;2023-05-19T03:51:42;101722.34;;;7.03;77.44
22440;BME280;11387;51.612;7.210;2023-05-19T03:54:12;101723.00;;;7.10;77.68
22440;BME280;11387;51.612;7.210;2023-05-19T03:56:41;101715.09;;;7.09;77.48
22440;BME280;11387;51.612;7.210;2023-05-19T03:59:10;101725.34;;;7.02;77.93
22440;BME280;11387;51.612;7.210;2023-05-19T04:01:38;101718.06;;;7.07;77.54
22440;BME280;11387;51.612;7.210;2023-05-19T04:04:07;101720.19;;;7.05;77.83
22440;BME280;11387;51.612;7.210;2023-05-19T04:06:39;101716.50;;;7.12;77.45
22440;BME280;11387;51.612;7.210;2023-05-19T04:09:10;101718.88;;;7.08;77.63
22440;BME280;11387;51.612;7.210;2023-05-19T04:11:40;101722.19;;;7.10;77.66
22440;BME280;11387;51.612;7.210;2023-05-19T04:14:08;101721.84;;;7.06;78.08
22440;BME280;11387;51.612;7.210;2023-05-19T04:16:37;101728.94;;;7.07;78.10
22440;BME280;11387;51.612;7.210;2023-05-19T04:19:06;101732.31;;;7.15;78.28
22440;BME280;11387;51.612;7.210;2023-05-19T04:21:35;101730.19;;;7.17;77.76
22440;BME280;11387;51.612;7.210;2023-05-19T04:24:05;101731.75;;;7.13;78.23
22440;BME280;11387;51.612;7.210;2023-05-19T04:26:36;101736.53;;;7.22;77.53
22440;BME280;11387;51.612;7.210;2023-05-19T04:29:08;101736.63;;;7.27;77.55
22440;BME280;11387;51.612;7.210;2023-05-19T04:31:44;101728.44;;;7.27;77.28
22440;BME280;11387;51.612;7.210;2023-05-19T04:34:13;101734.03;;;7.37;77.47
22440;BME280;11387;51.612;7.210;2023-05-19T04:36:48;101724.78;;;7.38;76.95
22440;BME280;11387;51.612;7.210;2023-05-19T04:39:21;101738.41;;;7.38;76.93
22440;BME280;11387;51.612;7.210;2023-05-19T04:41:50;101734.50;;;7.51;76.13
22440;BME280;11387;51.612;7.210;2023-05-19T04:44:23;101743.94;;;7.65;75.97
22440;BME280;11387;51.612;7.210;2023-05-19T04:46:52;101733.13;;;7.70;76.08
22440;BME280;11387;51.612;7.210;2023-05-19T04:49:24;101739.56;;;7.64;75.79
22440;BME280;11387;51.612;7.210;2023-05-19T04:51:53;101741.22;;;7.65;76.09
22440;BME280;11387;51.612;7.210;2023-05-19T04:54:35;101736.91;;;7.69;75.70
22440;BME280;11387;51.612;7.210;2023-05-19T04:57:04;101739.66;;;7.69;75.93
22440;BME280;11387;51.612;7.210;2023-05-19T04:59:34;101740.03;;;7.78;76.09
22440;BME280;11387;51.612;7.210;2023-05-19T05:02:02;101743.34;;;7.80;75.27
22440;BME280;11387;51.612;7.210;2023-05-19T05:04:31;101744.22;;;7.86;75.37
22440;BME280;11387;51.612;7.210;2023-05-19T05:07:07;101738.63;;;7.97;74.55
22440;BME280;11387;51.612;7.210;2023-05-19T05:09:37;101733.50;;;8.01;75.07
22440;BME280;11387;51.612;7.210;2023-05-19T05:12:09;101737.69;;;8.08;75.01
22440;BME280;11387;51.612;7.210;2023-05-19T05:14:38;101735.28;;;8.12;74.57
22440;BME280;11387;51.612;7.210;2023-05-19T05:17:08;101732.13;;;8.20;73.95
22440;BME280;11387;51.612;7.210;2023-05-19T05:19:37;101731.13;;;8.31;74.35
22440;BME280;11387;51.612;7.210;2023-05-19T05:22:05;101734.00;;;8.41;74.02
22440;BME280;11387;51.612;7.210;2023-05-19T05:24:34;101735.41;;;8.44;72.92
22440;BME280;11387;51.612;7.210;2023-05-19T05:27:07;101736.78;;;8.47;73.06
22440;BME280;11387;51.612;7.210;2023-05-19T05:29:36;101738.78;;;8.56;73.15
22440;BME280;11387;51.612;7.210;2023-05-19T05:32:05;101741.88;;;8.65;72.56
22440;BME280;11387;51.612;7.210;2023-05-19T05:34:37;101729.91;;;8.71;72.51
22440;BME280;11387;51.612;7.210;2023-05-19T05:37:07;101738.22;;;8.81;71.98
22440;BME280;11387;51.612;7.210;2023-05-19T05:39:36;101733.88;;;8.85;71.69
22440;BME280;11387;51.612;7.210;2023-05-19T05:42:05;101734.47;;;8.92;71.19
22440;BME280;11387;51.612;7.210;2023-05-19T05:44:36;101726.31;;;8.97;71.50
22440;BME280;11387;51.612;7.210;2023-05-19T05:47:06;101727.34;;;9.23;71.22
22440;BME280;11387;51.612;7.210;2023-05-19T05:49:35;101724.97;;;9.37;69.99
22440;BME280;11387;51.612;7.210;2023-05-19T05:52:05;101723.13;;;9.48;69.51
22440;BME280;11387;51.612;7.210;2023-05-19T05:54:35;101728.59;;;9.53;69.32
22440;BME280;11387;51.612;7.210;2023-05-19T05:57:05;101728.91;;;9.56;68.87
22440;BME280;11387;51.612;7.210;2023-05-19T05:59:39;101722.09;;;9.59;68.99
22440;BME280;11387;51.612;7.210;2023-05-19T06:02:18;101727.94;;;9.77;68.45
22440;BME280;11387;51.612;7.210;2023-05-19T06:04:51;101726.28;;;9.76;67.68
22440;BME280;11387;51.612;7.210;2023-05-19T06:07:22;101729.56;;;9.78;67.94
22440;BME280;11387;51.612;7.210;2023-05-19T06:09:50;101719.78;;;9.88;67.85
22440;BME280;11387;51.612;7.210;2023-05-19T06:12:19;101729.63;;;9.94;67.76
22440;BME280;11387;51.612;7.210;2023-05-19T06:14:50;101723.38;;;9.98;68.21
22440;BME280;11387;51.612;7.210;2023-05-19T06:17:19;101725.31;;;10.13;67.70
22440;BME280;11387;51.612;7.210;2023-05-19T06:19:47;101725.94;;;10.25;66.98
22440;BME280;11387;51.612;7.210;2023-05-19T06:22:16;101717.75;;;10.30;66.56
22440;BME280;11387;51.612;7.210;2023-05-19T06:24:45;101714.47;;;10.28;66.79
22440;BME280;11387;51.612;7.210;2023-05-19T06:27:14;101720.50;;;10.45;66.13
22440;BME280;11387;51.612;7.210;2023-05-19T06:29:43;101717.25;;;10.54;66.50
22440;BME280;11387;51.612;7.210;2023-05-19T06:32:13;101712.34;;;10.61;66.60
22440;BME280;11387;51.612;7.210;2023-05-19T06:34:41;101714.53;;;10.69;66.16
22440;BME280;11387;51.612;7.210;2023-05-19T06:37:10;101720.56;;;10.91;65.53
22440;BME280;11387;51.612;7.210;2023-05-19T06:39:40;101728.50;;;10.93;65.88
22440;BME280;11387;51.612;7.210;2023-05-19T06:42:09;101723.28;;;11.01;65.48
22440;BME280;11387;51.612;7.210;2023-05-19T06:44:37;101723.56;;;11.20;64.50
22440;BME280;11387;51.612;7.210;2023-05-19T06:47:06;101726.03;;;11.17;64.84
22440;BME280;11387;51.612;7.210;2023-05-19T06:49:36;101725.97;;;11.42;64.67
22440;BME280;11387;51.612;7.210;2023-05-19T06:52:04;101725.41;;;11.55;63.53
22440;BME280;11387;51.612;7.210;2023-05-19T06:54:32;101723.16;;;11.67;62.41
22440;BME280;11387;51.612;7.210;2023-05-19T06:57:01;101724.81;;;11.63;62.61
22440;BME280;11387;51.612;7.210;2023-05-19T06:59:29;101713.50;;;11.95;62.70
22440;BME280;11387;51.612;7.210;2023-05-19T07:01:58;101722.19;;;12.12;61.77
22440;BME280;11387;51.612;7.210;2023-05-19T07:04:28;101723.53;;;12.20;60.98
22440;BME280;11387;51.612;7.210;2023-05-19T07:06:58;101719.66;;;12.26;60.98
22440;BME280;11387;51.612;7.210;2023-05-19T07:09:26;101719.50;;;12.52;60.31
22440;BME280;11387;51.612;7.210;2023-05-19T07:11:55;101720.44;;;12.76;59.95
22440;BME280;11387;51.612;7.210;2023-05-19T07:14:23;101715.25;;;13.03;59.34
22440;BME280;11387;51.612;7.210;2023-05-19T07:16:52;101710.97;;;13.21;58.28
22440;BME280;11387;51.612;7.210;2023-05-19T07:19:20;101714.38;;;13.42;57.72
22440;BME280;11387;51.612;7.210;2023-05-19T07:21:50;101714.06;;;13.14;58.47
22440;BME280;11387;51.612;7.210;2023-05-19T07:24:19;101717.78;;;13.29;57.56
22440;BME280;11387;51.612;7.210;2023-05-19T07:26:48;101704.19;;;13.13;57.88
22440;BME280;11387;51.612;7.210;2023-05-19T07:29:16;101716.72;;;13.25;57.72
22440;BME280;11387;51.612;7.210;2023-05-19T07:31:45;101710.78;;;13.41;57.98
22440;BME280;11387;51.612;7.210;2023-05-19T07:34:13;101703.88;;;13.92;56.71
22440;BME280;11387;51.612;7.210;2023-05-19T07:36:41;101710.09;;;14.21;56.65
22440;BME280;11387;51.612;7.210;2023-05-19T07:39:10;101706.69;;;13.87;56.84
22440;BME280;11387;51.612;7.210;2023-05-19T07:41:40;101721.09;;;13.78;55.60
22440;BME280;11387;51.612;7.210;2023-05-19T07:44:08;101709.97;;;14.07;55.72
22440;BME280;11387;51.612;7.210;2023-05-19T07:46:36;101709.44;;;14.29;55.32
22440;BME280;11387;51.612;7.210;2023-05-19T07:49:05;101711.97;;;14.44;53.80
22440;BME280;11387;51.612;7.210;2023-05-19T07:51:33;101702.47;;;14.56;53.80
22440;BME280;11387;51.612;7.210;2023-05-19T07:54:02;101698.16;;;15.14;52.95
22440;BME280;11387;51.612;7.210;2023-05-19T07:56:30;101702.69;;;16.20;49.89
22440;BME280;11387;51.612;7.210;2023-05-19T07:59:00;101702.03;;;16.37;48.85
22440;BME280;11387;51.612;7.210;2023-05-19T08:01:29;101693.75;;;16.73;47.64
22440;BME280;11387;51.612;7.210;2023-05-19T08:03:58;101701.91;;;18.19;44.61
22440;BME280;11387;51.612;7.210;2023-05-19T08:06:32;101693.09;;;19.03;42.04
22440;BME280;11387;51.612;7.210;2023-05-19T08:09:11;101681.03;;;20.13;38.81
22440;BME280;11387;51.612;7.210;2023-05-19T08:11:39;101683.69;;;21.17;36.43
22440;BME280;11387;51.612;7.210;2023-05-19T08:14:09;101686.75;;;20.92;36.67
22440;BME280;11387;51.612;7.210;2023-05-19T08:16:38;101680.47;;;20.20;37.47
22440;BME280;11387;51.612;7.210;2023-05-19T08:19:08;101686.28;;;22.32;35.08
22440;BME280;11387;51.612;7.210;2023-05-19T08:21:37;101682.59;;;22.28;35.02
22440;BME280;11387;51.612;7.210;2023-05-19T08:24:05;101676.03;;;24.18;32.29
22440;BME280;11387;51.612;7.210;2023-05-19T08:26:34;101674.56;;;25.21;29.24
22440;BME280;11387;51.612;7.210;2023-05-19T08:29:04;101678.34;;;25.09;28.52
22440;BME280;11387;51.612;7.210;2023-05-19T08:31:34;101671.41;;;23.91;30.42
22440;BME280;11387;51.612;7.210;2023-05-19T08:34:02;101678.16;;;22.95;30.67
22440;BME280;11387;51.612;7.210;2023-05-19T08:36:31;101665.91;;;23.94;30.89
22440;BME280;11387;51.612;7.210;2023-05-19T08:39:00;101657.75;;;25.93;27.67
22440;BME280;11387;51.612;7.210;2023-05-19T08:41:28;101659.63;;;25.85;27.97
22440;BME280;11387;51.612;7.210;2023-05-19T08:43:57;101660.31;;;22.84;30.92
22440;BME280;11387;51.612;7.210;2023-05-19T08:46:26;101651.31;;;22.63;31.44
22440;BME280;11387;51.612;7.210;2023-05-19T08:48:59;101651.28;;;23.18;30.44
22440;BME280;11387;51.612;7.210;2023-05-19T08:51:32;101651.28;;;25.16;27.50
22440;BME280;11387;51.612;7.210;2023-05-19T08:54:03;101649.97;;;25.10;27.50
22440;BME280;11387;51.612;7.210;2023-05-19T08:56:35;101640.31;;;26.06;26.72
22440;BME280;11387;51.612;7.210;2023-05-19T08:59:05;101650.53;;;23.84;28.56
22440;BME280;11387;51.612;7.210;2023-05-19T09:01:34;101644.09;;;21.33;31.74
22440;BME280;11387;51.612;7.210;2023-05-19T09:04:10;101643.75;;;21.46;31.97
22440;BME280;11387;51.612;7.210;2023-05-19T09:06:38;101634.59;;;21.34;33.16
22440;BME280;11387;51.612;7.210;2023-05-19T09:09:08;101637.63;;;22.86;31.78
22440;BME280;11387;51.612;7.210;2023-05-19T09:11:36;101631.00;;;25.99;28.37
22440;BME280;11387;51.612;7.210;2023-05-19T09:14:05;101632.78;;;27.14;25.32
22440;BME280;11387;51.612;7.210;2023-05-19T09:16:34;101632.63;;;23.70;27.55
22440;BME280;11387;51.612;7.210;2023-05-19T09:19:02;101635.00;;;21.97;31.28
22440;BME280;11387;51.612;7.210;2023-05-19T09:21:32;101626.16;;;22.75;29.61
22440;BME280;11387;51.612;7.210;2023-05-19T09:24:04;101627.56;;;22.69;29.74
22440;BME280;11387;51.612;7.210;2023-05-19T09:26:34;101622.78;;;20.59;32.48
22440;BME280;11387;51.612;7.210;2023-05-19T09:29:09;101617.94;;;22.10;31.90
22440;BME280;11387;51.612;7.210;2023-05-19T09:31:38;101626.38;;;22.26;30.68
22440;BME280;11387;51.612;7.210;2023-05-19T09:34:10;101612.94;;;22.04;30.86
22440;BME280;11387;51.612;7.210;2023-05-19T09:36:40;101618.25;;;22.21;30.42
22440;BME280;11387;51.612;7.210;2023-05-19T09:39:12;101621.81;;;22.62;29.76
22440;BME280;11387;51.612;7.210;2023-05-19T09:41:41;101619.53;;;22.51;30.06
22440;BME280;11387;51.612;7.210;2023-05-19T09:44:12;101622.59;;;21.94;31.49
22440;BME280;11387;51.612;7.210;2023-05-19T09:46:48;101613.22;;;23.77;28.56
22440;BME280;11387;51.612;7.210;2023-05-19T09:49:19;101615.41;;;24.03;28.09
22440;BME280;11387;51.612;7.210;2023-05-19T09:51:51;101618.38;;;23.28;29.36
22440;BME280;11387;51.612;7.210;2023-05-19T09:54:21;101609.53;;;22.78;29.59
22440;BME280;11387;51.612;7.210;2023-05-19T09:56:50;101613.34;;;23.02;29.44
22440;BME280;11387;51.612;7.210;2023-05-19T09:59:19;101593.97;;;25.86;27.58
22440;BME280;11387;51.612;7.210;2023-05-19T10:01:52;101595.94;;;25.33;26.22
22440;BME280;11387;51.612;7.210;2023-05-19T10:04:21;101593.06;;;25.78;27.28
22440;BME280;11387;51.612;7.210;2023-05-19T10:06:52;101592.50;;;25.69;26.95
22440;BME280;11387;51.612;7.210;2023-05-19T10:09:21;101591.44;;;28.35;23.31
22440;BME280;11387;51.612;7.210;2023-05-19T10:11:50;101587.53;;;27.81;23.66
22440;BME280;11387;51.612;7.210;2023-05-19T10:14:20;101591.00;;;26.35;25.04
22440;BME280;11387;51.612;7.210;2023-05-19T10:16:49;101588.81;;;25.39;26.48
22440;BME280;11387;51.612;7.210;2023-05-19T10:19:19;101577.75;;;27.61;24.29
22440;BME280;11387;51.612;7.210;2023-05-19T10:21:48;101578.72;;;26.47;24.20
22440;BME280;11387;51.612;7.210;2023-05-19T10:24:19;101579.88;;;26.42;24.66
22440;BME280;11387;51.612;7.210;2023-05-19T10:26:48;101569.72;;;24.95;26.37
22440;BME280;11387;51.612;7.210;2023-05-19T10:29:20;101571.81;;;27.22;24.97
22440;BME280;11387;51.612;7.210;2023-05-19T10:31:50;101571.00;;;28.67;22.86
22440;BME280;11387;51.612;7.210;2023-05-19T10:34:22;101562.63;;;31.12;20.20
22440;BME280;11387;51.612;7.210;2023-05-19T10:36:57;101564.22;;;26.41;23.92
22440;BME280;11387;51.612;7.210;2023-05-19T10:39:32;101575.91;;;23.69;27.68
22440;BME280;11387;51.612;7.210;2023-05-19T10:42:03;101565.19;;;23.71;28.49
22440;BME280;11387;51.612;7.210;2023-05-19T10:44:39;101568.31;;;26.47;25.21
22440;BME280;11387;51.612;7.210;2023-05-19T10:47:10;101556.94;;;29.13;22.80
22440;BME280;11387;51.612;7.210;2023-05-19T10:49:39;101547.81;;;30.28;20.06
22440;BME280;11387;51.612;7.210;2023-05-19T10:52:17;101561.34;;;28.64;22.19
22440;BME280;11387;51.612;7.210;2023-05-19T10:54:49;101553.22;;;26.26;24.22
22440;BME280;11387;51.612;7.210;2023-05-19T10:57:17;101560.91;;;25.46;24.98
22440;BME280;11387;51.612;7.210;2023-05-19T10:59:47;101556.50;;;24.73;26.23
22440;BME280;11387;51.612;7.210;2023-05-19T11:05:07;101547.88;;;25.83;23.94
22440;BME280;11387;51.612;7.210;2023-05-19T11:07:37;101549.09;;;26.16;24.27
22440;BME280;11387;51.612;7.210;2023-05-19T11:10:10;101551.09;;;27.37;22.02
22440;BME280;11387;51.612;7.210;2023-05-19T11:12:39;101554.03;;;26.26;24.08
22440;BME280;11387;51.612;7.210;2023-05-19T11:15:09;101571.47;;;24.61;26.45
22440;BME280;11387;51.612;7.210;2023-05-19T11:17:39;101553.69;;;25.98;24.62
22440;BME280;11387;51.612;7.210;2023-05-19T11:20:11;101545.06;;;25.57;24.64
22440;BME280;11387;51.612;7.210;2023-05-19T11:23:02;101543.69;;;28.96;21.65
22440;BME280;11387;51.612;7.210;2023-05-19T11:25:45;101545.91;;;28.12;21.90
22440;BME280;11387;51.612;7.210;2023-05-19T11:28:15;101548.53;;;26.37;23.77
22440;BME280;11387;51.612;7.210;2023-05-19T11:30:46;101544.63;;;25.81;24.41
22440;BME280;11387;51.612;7.210;2023-05-19T11:33:16;101544.66;;;28.13;22.48
22440;BME280;11387;51.612;7.210;2023-05-19T11:35:46;101531.22;;;28.93;20.71
22440;BME280;11387;51.612;7.210;2023-05-19T11:38:15;101534.41;;;28.74;20.77
22440;BME280;11387;51.612;7.210;2023-05-19T11:40:46;101531.88;;;28.26;21.56
22440;BME280;11387;51.612;7.210;2023-05-19T11:43:15;101541.31;;;26.76;23.21
22440;BME280;11387;51.612;7.210;2023-05-19T11:45:44;101533.81;;;26.47;23.68
22440;BME280;11387;51.612;7.210;2023-05-19T11:48:13;101528.66;;;25.29;25.17
22440;BME280;11387;51.612;7.210;2023-05-19T11:50:43;101526.03;;;25.70;24.52
22440;BME280;11387;51.612;7.210;2023-05-19T11:53:13;101527.56;;;26.64;24.09
22440;BME280;11387;51.612;7.210;2023-05-19T11:55:43;101530.28;;;25.87;24.19
22440;BME280;11387;51.612;7.210;2023-05-19T11:58:14;101523.53;;;27.02;23.68
22440;BME280;11387;51.612;7.210;2023-05-19T12:00:43;101510.84;;;30.05;20.33
22440;BME280;11387;51.612;7.210;2023-05-19T12:03:13;101517.22;;;30.82;20.20
22440;BME280;11387;51.612;7.210;2023-05-19T12:05:44;101517.69;;;31.22;18.78
22440;BME280;11387;51.612;7.210;2023-05-19T12:08:14;101507.28;;;31.87;17.92
22440;BME280;11387;51.612;7.210;2023-05-19T12:10:44;101510.66;;;30.92;18.58
22440;BME280;11387;51.612;7.210;2023-05-19T12:13:16;101499.03;;;32.57;17.75
22440;BME280;11387;51.612;7.210;2023-05-19T12:15:44;101499.94;;;30.07;19.05
22440;BME280;11387;51.612;7.210;2023-05-19T12:18:13;101511.25;;;27.28;22.62
22440;BME280;11387;51.612;7.210;2023-05-19T12:20:42;101505.56;;;27.79;21.92
22440;BME280;11387;51.612;7.210;2023-05-19T12:23:10;101494.19;;;28.88;21.12
22440;BME280;11387;51.612;7.210;2023-05-19T12:25:39;101509.03;;;28.63;22.02
22440;BME280;11387;51.612;7.210;2023-05-19T12:28:07;101499.75;;;27.44;22.65
22440;BME280;11387;51.612;7.210;2023-05-19T12:30:37;101499.69;;;27.37;22.78
22440;BME280;11387;51.612;7.210;2023-05-19T12:33:07;101498.69;;;27.08;23.84
22440;BME280;11387;51.612;7.210;2023-05-19T12:35:36;101497.06;;;27.03;22.67
22440;BME280;11387;51.612;7.210;2023-05-19T12:38:08;101479.09;;;29.79;20.39
22440;BME280;11387;51.612;7.210;2023-05-19T12:40:37;101486.34;;;29.80;20.15
22440;BME280;11387;51.612;7.210;2023-05-19T12:43:17;101486.03;;;29.36;20.60
22440;BME280;11387;51.612;7.210;2023-05-19T12:45:47;101494.94;;;29.24;21.53
22440;BME280;11387;51.612;7.210;2023-05-19T12:48:15;101483.38;;;30.75;18.78
22440;BME280;11387;51.612;7.210;2023-05-19T12:50:44;101484.72;;;29.83;19.81
22440;BME280;11387;51.612;7.210;2023-05-19T12:53:13;101472.84;;;28.94;20.41
22440;BME280;11387;51.612;7.210;2023-05-19T12:55:42;101473.63;;;28.66;20.51
22440;BME280;11387;51.612;7.210;2023-05-19T12:58:11;101480.84;;;28.35;21.23
22440;BME280;11387;51.612;7.210;2023-05-19T13:00:40;101471.94;;;28.11;21.30
22440;BME280;11387;51.612;7.210;2023-05-19T13:03:14;101462.38;;;29.01;20.58
22440;BME280;11387;51.612;7.210;2023-05-19T13:05:44;101459.16;;;28.99;20.64
22440;BME280;11387;51.612;7.210;2023-05-19T13:08:14;101471.00;;;27.06;23.15
22440;BME280;11387;51.612;7.210;2023-05-19T13:10:44;101470.38;;;25.68;24.36
22440;BME280;11387;51.612;7.210;2023-05-19T13:13:13;101469.50;;;25.34;25.32
22440;BME280;11387;51.612;7.210;2023-05-19T13:15:45;101473.78;;;26.18;24.11
22440;BME280;11387;51.612;7.210;2023-05-19T13:18:17;101466.00;;;27.44;23.67
22440;BME280;11387;51.612;7.210;2023-05-19T13:20:46;101460.72;;;28.22;23.04